Terminal Aerodrome Forecast
Issued by NWS

Home | Current Version | Previous Version | Text Only | Print | Product List | Glossary On
Versions: 1 2 3 4 5 6 7 8 9 10 11 12 13 14 15 16 17 18 19 20 21 22 23 24 25 26 27 28 29 30 31 32 33 34 35 36 37 38 39 40 41 42 43 44 45 46 47 48 49 50
000
FTUS41 KCTP 260811 AAB
TAFLNS
TAF AMD
KLNS 260811Z 2608/2706 VRB03KT 3SM BR VCTS SCT050CB BKN100
      TEMPO 2608/2609 36010G20KT 4SM TSRA BKN050CB
     FM260900 26003KT 4SM BR BKN050
     FM261300 29005KT P6SM SCT100
     FM261600 33008KT P6SM SCT050
     FM262300 36004KT P6SM SCT250=

USA.gov is the U.S. government's official web portal to all federal, state and local government web resources and services.